createdAt,value
2022-10-18T00:02:10.726Z,6.70
2022-10-18T00:04:39.203Z,6.57
2022-10-18T00:07:07.718Z,6.53
2022-10-18T00:09:36.322Z,6.95
2022-10-18T00:12:06.194Z,6.18
2022-10-18T00:14:34.564Z,5.93
2022-10-18T00:17:02.914Z,6.43
2022-10-18T00:19:31.434Z,5.95
2022-10-18T00:21:59.741Z,6.10
2022-10-18T00:24:28.176Z,6.07
2022-10-18T00:26:56.514Z,5.28
2022-10-18T00:29:26.238Z,6.35
2022-10-18T00:31:54.647Z,5.43
2022-10-18T00:34:22.961Z,5.47
2022-10-18T00:36:51.554Z,5.75
2022-10-18T00:39:21.729Z,6.10
2022-10-18T00:41:50.991Z,6.95
2022-10-18T00:44:56.621Z,7.05
2022-10-18T00:47:26.348Z,6.38
2022-10-18T00:49:58.032Z,6.97
2022-10-18T00:52:31.668Z,6.28
2022-10-18T00:55:00.632Z,6.53
2022-10-18T00:57:29.272Z,6.13
2022-10-18T00:59:57.906Z,6.47
2022-10-18T01:02:28.255Z,5.30
2022-10-18T01:04:56.907Z,6.18
2022-10-18T01:07:39.004Z,6.20
2022-10-18T01:10:18.838Z,5.80
2022-10-18T01:12:56.873Z,6.20
2022-10-18T01:15:29.225Z,5.90
2022-10-18T01:18:07.832Z,5.53
2022-10-18T01:20:57.200Z,6.55
2022-10-18T01:23:40.574Z,5.70
2022-10-18T01:26:24.664Z,5.82
2022-10-18T01:29:05.792Z,6.22
2022-10-18T01:31:40.803Z,6.75
2022-10-18T01:34:11.210Z,6.22
2022-10-18T01:36:43.775Z,6.38
2022-10-18T01:39:16.525Z,5.80
2022-10-18T01:41:46.503Z,6.28
2022-10-18T01:44:22.329Z,6.22
2022-10-18T01:46:55.181Z,5.90
2022-10-18T01:49:24.960Z,6.38
2022-10-18T01:51:53.429Z,6.20
2022-10-18T01:54:27.028Z,6.18
2022-10-18T01:57:01.121Z,6.88
2022-10-18T01:59:46.575Z,6.13
2022-10-18T02:02:25.886Z,6.53
2022-10-18T02:05:00.910Z,6.20
2022-10-18T02:07:35.422Z,6.57
2022-10-18T02:10:10.037Z,6.30
2022-10-18T02:12:42.647Z,7.07
2022-10-18T02:15:15.330Z,7.30
2022-10-18T02:17:46.490Z,7.35
2022-10-18T02:20:17.206Z,7.10
2022-10-18T02:22:46.576Z,6.72
2022-10-18T02:25:18.914Z,6.60
2022-10-18T02:27:47.505Z,5.93
2022-10-18T02:30:16.769Z,6.05
2022-10-18T02:32:54.815Z,5.45
2022-10-18T02:35:27.689Z,5.22
2022-10-18T02:37:59.450Z,5.43
2022-10-18T02:40:28.081Z,5.32
2022-10-18T02:42:58.450Z,5.07
2022-10-18T02:45:28.047Z,5.00
2022-10-18T02:47:57.850Z,4.78
2022-10-18T02:50:26.324Z,5.55
2022-10-18T02:52:54.628Z,5.63
2022-10-18T02:55:23.048Z,5.80
2022-10-18T02:57:51.459Z,5.30
2022-10-18T03:00:19.965Z,5.30
2022-10-18T03:02:50.506Z,5.53
2022-10-18T03:05:20.457Z,5.22
2022-10-18T03:07:48.830Z,5.18
2022-10-18T03:10:17.284Z,5.90
2022-10-18T03:12:46.022Z,5.28
2022-10-18T03:15:14.653Z,5.63
2022-10-18T03:17:43.089Z,5.75
2022-10-18T03:20:12.416Z,4.80
2022-10-18T03:22:42.351Z,4.97
2022-10-18T03:25:10.701Z,5.00
2022-10-18T03:27:39.056Z,4.60
2022-10-18T03:30:08.555Z,4.90
2022-10-18T03:32:36.876Z,4.90
2022-10-18T03:35:05.754Z,5.10
2022-10-18T03:37:34.191Z,4.55
2022-10-18T03:40:04.369Z,4.68
2022-10-18T03:42:32.925Z,4.80
2022-10-18T03:45:01.593Z,4.90
2022-10-18T03:47:29.917Z,4.97
2022-10-18T03:49:58.423Z,4.55
2022-10-18T03:52:26.871Z,4.63
2022-10-18T03:54:55.265Z,5.15
2022-10-18T03:57:25.108Z,5.47
2022-10-18T03:59:53.637Z,5.00
2022-10-18T04:02:22.125Z,5.13
2022-10-18T04:04:50.497Z,5.32
2022-10-18T04:07:18.921Z,5.03
2022-10-18T04:09:47.291Z,5.05
2022-10-18T04:12:15.673Z,5.32
2022-10-18T04:14:45.629Z,5.30
2022-10-18T04:17:14.079Z,4.82
2022-10-18T04:19:42.415Z,5.45
2022-10-18T04:22:12.483Z,4.80
2022-10-18T04:24:40.804Z,4.72
2022-10-18T04:27:09.447Z,5.00
2022-10-18T04:29:37.805Z,4.90
2022-10-18T04:32:07.828Z,4.82
2022-10-18T04:34:36.357Z,5.05
2022-10-18T04:37:04.752Z,4.53
2022-10-18T04:39:33.101Z,4.75
2022-10-18T04:42:01.556Z,4.65
2022-10-18T04:44:29.934Z,4.63
2022-10-18T04:46:58.446Z,4.15
2022-10-18T04:49:28.201Z,4.47
2022-10-18T04:51:56.590Z,3.80
2022-10-18T04:54:26.572Z,4.20
2022-10-18T04:56:57.185Z,4.32
2022-10-18T04:59:25.753Z,3.80
2022-10-18T05:01:54.231Z,3.58
2022-10-18T05:04:22.724Z,3.95
2022-10-18T05:06:52.472Z,4.10
2022-10-18T05:09:24.422Z,4.68
2022-10-18T05:11:53.015Z,5.03
2022-10-18T05:14:21.454Z,5.53
2022-10-18T05:16:50.357Z,5.20
2022-10-18T05:19:18.742Z,5.20
2022-10-18T05:21:47.276Z,5.15
2022-10-18T05:24:17.052Z,5.70
2022-10-18T05:26:45.518Z,6.18
2022-10-18T05:29:14.107Z,8.07
2022-10-18T05:31:42.631Z,8.48
2022-10-18T05:34:10.971Z,8.95
2022-10-18T05:36:39.360Z,10.63
2022-10-18T05:39:07.757Z,9.20
2022-10-18T05:41:37.645Z,11.30
2022-10-18T05:44:07.293Z,11.63
2022-10-18T05:46:36.398Z,13.10
2022-10-18T05:49:04.891Z,12.57
2022-10-18T05:51:33.489Z,13.35
2022-10-18T05:54:01.815Z,13.48
2022-10-18T05:56:30.424Z,13.60
2022-10-18T05:59:00.161Z,15.23
2022-10-18T06:01:28.594Z,14.55
2022-10-18T06:03:56.982Z,15.73
2022-10-18T06:06:25.402Z,13.30
2022-10-18T06:08:53.765Z,15.05
2022-10-18T06:11:22.922Z,14.00
2022-10-18T06:13:52.889Z,15.35
2022-10-18T06:16:25.435Z,17.00
2022-10-18T06:18:57.689Z,15.33
2022-10-18T06:21:26.581Z,17.08
2022-10-18T06:23:56.492Z,17.73
2022-10-18T06:26:25.997Z,18.13
2022-10-18T06:28:54.438Z,18.58
2022-10-18T06:31:24.256Z,18.63
2022-10-18T06:33:52.659Z,20.08
2022-10-18T06:36:22.985Z,19.38
2022-10-18T06:38:52.532Z,19.25
2022-10-18T06:41:21.955Z,19.20
2022-10-18T06:43:50.553Z,17.38
2022-10-18T06:46:19.065Z,19.80
2022-10-18T06:48:49.066Z,19.52
2022-10-18T06:51:18.307Z,18.15
2022-10-18T06:53:59.246Z,19.27
2022-10-18T06:56:35.870Z,20.30
2022-10-18T06:59:04.789Z,18.92
2022-10-18T07:01:33.212Z,19.80
2022-10-18T07:04:03.051Z,18.80
2022-10-18T07:06:31.445Z,19.33
2022-10-18T07:09:00.249Z,20.08
2022-10-18T07:11:28.730Z,19.60
2022-10-18T07:14:05.093Z,20.65
2022-10-18T07:16:34.631Z,19.80
2022-10-18T07:19:04.721Z,20.20
2022-10-18T07:21:33.085Z,19.00
2022-10-18T07:24:01.851Z,19.90
2022-10-18T07:26:32.973Z,18.73
2022-10-18T07:29:03.105Z,19.55
2022-10-18T07:31:31.806Z,20.35
2022-10-18T07:34:00.755Z,20.20
2022-10-18T07:36:31.261Z,18.40
2022-10-18T07:38:59.732Z,18.80
2022-10-18T07:41:28.957Z,20.10
2022-10-18T07:43:57.477Z,19.42
2022-10-18T07:46:26.126Z,18.33
2022-10-18T07:48:54.682Z,18.55
2022-10-18T07:51:23.620Z,21.20
2022-10-18T07:53:53.396Z,18.85
2022-10-18T07:56:22.340Z,17.85
2022-10-18T07:58:52.429Z,17.17
2022-10-18T08:01:22.820Z,18.50
2022-10-18T08:03:52.052Z,17.45
2022-10-18T08:06:22.527Z,17.08
2022-10-18T08:08:51.180Z,16.83
2022-10-18T08:11:22.561Z,17.45
2022-10-18T08:13:51.527Z,17.23
2022-10-18T08:16:21.743Z,16.90
2022-10-18T08:18:50.655Z,16.73
2022-10-18T08:21:20.754Z,16.02
2022-10-18T08:23:49.505Z,16.65
2022-10-18T08:26:19.857Z,16.98
2022-10-18T08:29:03.595Z,16.30
2022-10-18T08:31:38.618Z,16.00
2022-10-18T08:34:07.058Z,16.75
2022-10-18T08:36:37.259Z,16.35
2022-10-18T08:39:05.624Z,16.30
2022-10-18T08:41:55.834Z,16.55
2022-10-18T08:44:29.353Z,16.35
2022-10-18T08:47:04.150Z,15.98
2022-10-18T08:49:40.826Z,15.20
2022-10-18T08:52:19.172Z,14.55
2022-10-18T08:54:56.651Z,15.93
2022-10-18T08:57:25.210Z,15.38
2022-10-18T08:59:55.098Z,16.20
2022-10-18T09:02:51.865Z,15.70
2022-10-18T09:05:25.900Z,15.52
2022-10-18T09:08:15.248Z,17.00
2022-10-18T09:10:52.751Z,16.65
2022-10-18T09:13:56.568Z,16.70
2022-10-18T09:16:32.969Z,16.80
2022-10-18T09:19:11.519Z,16.73
2022-10-18T09:21:49.645Z,15.35
2022-10-18T09:24:27.063Z,16.58
2022-10-18T09:27:04.988Z,15.05
2022-10-18T09:29:50.207Z,16.70
2022-10-18T09:32:33.344Z,16.05
2022-10-18T09:35:06.898Z,14.88
2022-10-18T09:37:36.135Z,15.55
2022-10-18T09:40:18.060Z,15.82
2022-10-18T09:42:56.371Z,14.75
2022-10-18T09:45:28.950Z,14.05
2022-10-18T09:48:08.453Z,14.55
2022-10-18T09:50:41.466Z,15.48
2022-10-18T09:53:18.909Z,15.25
2022-10-18T09:55:59.997Z,14.80
2022-10-18T09:58:36.535Z,14.63
2022-10-18T10:01:05.057Z,14.18
2022-10-18T10:03:35.240Z,14.32
2022-10-18T10:06:16.813Z,14.57
2022-10-18T10:08:48.978Z,14.00
2022-10-18T10:11:33.333Z,12.55
2022-10-18T10:16:51.525Z,14.50
2022-10-18T10:19:25.292Z,14.02
2022-10-18T10:21:58.697Z,13.65
2022-10-18T10:24:35.011Z,14.48
2022-10-18T10:27:06.827Z,14.07
2022-10-18T10:29:53.917Z,14.63
2022-10-18T10:32:23.698Z,13.18
2022-10-18T10:34:54.221Z,14.25
2022-10-18T10:37:32.565Z,14.10
2022-10-18T10:40:27.656Z,13.00
2022-10-18T10:43:12.984Z,13.20
2022-10-18T10:45:59.315Z,12.85
2022-10-18T10:51:07.297Z,12.57
2022-10-18T10:53:45.391Z,12.02
2022-10-18T10:56:27.255Z,11.05
2022-10-18T10:58:59.496Z,10.45
2022-10-18T11:01:33.030Z,10.02
2022-10-18T11:04:04.584Z,10.63
2022-10-18T11:06:40.185Z,10.73
2022-10-18T11:09:20.316Z,9.95
2022-10-18T11:11:59.612Z,9.82
2022-10-18T11:14:30.701Z,9.75
2022-10-18T11:17:08.142Z,10.95
2022-10-18T11:19:43.729Z,9.98
2022-10-18T11:22:19.494Z,9.05
2022-10-18T11:24:48.219Z,9.30
2022-10-18T11:27:24.641Z,10.50
2022-10-18T11:30:04.500Z,10.48
2022-10-18T11:32:42.955Z,10.35
2022-10-18T11:35:31.393Z,11.15
2022-10-18T11:38:13.391Z,11.25
2022-10-18T11:41:16.490Z,10.52
2022-10-18T11:44:04.181Z,11.07
2022-10-18T11:46:53.078Z,10.57
2022-10-18T11:50:00.148Z,10.82
2022-10-18T11:52:38.155Z,12.27
2022-10-18T11:55:17.886Z,11.40
2022-10-18T11:57:56.667Z,10.43
2022-10-18T12:00:39.299Z,10.27
2022-10-18T12:03:27.716Z,10.30
2022-10-18T12:05:59.495Z,9.88
2022-10-18T12:08:33.800Z,9.70
2022-10-18T12:11:10.309Z,9.23
2022-10-18T12:13:45.240Z,9.55
2022-10-18T12:16:14.109Z,9.75
2022-10-18T12:21:27.930Z,9.27
2022-10-18T12:24:00.359Z,9.40
2022-10-18T12:26:32.301Z,8.75
2022-10-18T12:29:09.534Z,7.80
2022-10-18T12:31:44.463Z,7.38
2022-10-18T12:34:35.974Z,8.23
2022-10-18T12:37:24.704Z,7.18
2022-10-18T12:40:10.261Z,7.20
2022-10-18T12:42:50.513Z,7.32
2022-10-18T12:45:32.247Z,8.48
2022-10-18T12:48:01.944Z,8.35
2022-10-18T12:50:34.730Z,8.55
2022-10-18T12:53:06.996Z,8.15
2022-10-18T12:55:37.830Z,7.75
2022-10-18T12:58:27.524Z,7.55
2022-10-18T13:01:02.249Z,9.02
2022-10-18T13:03:58.973Z,8.30
2022-10-18T13:07:05.799Z,7.85
2022-10-18T13:09:37.078Z,8.93
2022-10-18T13:12:46.504Z,8.82
2022-10-18T13:15:39.552Z,7.88
2022-10-18T13:18:19.436Z,9.00
2022-10-18T13:20:58.438Z,8.40
2022-10-18T13:23:40.222Z,9.18
2022-10-18T13:26:20.260Z,8.70
2022-10-18T13:28:59.955Z,9.02
2022-10-18T13:31:36.722Z,8.90
2022-10-18T13:34:28.005Z,9.23
2022-10-18T13:37:01.429Z,7.90
2022-10-18T13:39:31.260Z,8.07
2022-10-18T13:42:32.909Z,8.45
2022-10-18T13:45:41.117Z,7.80
2022-10-18T13:48:50.031Z,7.82
2022-10-18T13:51:50.382Z,7.68
2022-10-18T13:54:44.954Z,6.78
2022-10-18T13:57:36.850Z,6.32
2022-10-18T14:00:20.633Z,6.18
2022-10-18T14:03:26.679Z,5.90
2022-10-18T14:06:07.378Z,6.93
2022-10-18T14:08:39.518Z,8.13
2022-10-18T14:11:26.725Z,8.38
2022-10-18T14:14:05.084Z,8.23
2022-10-18T14:16:39.684Z,8.68
2022-10-18T14:19:17.621Z,7.82
2022-10-18T14:21:54.823Z,7.95
2022-10-18T14:24:26.872Z,8.85
2022-10-18T14:27:17.247Z,8.25
2022-10-18T14:29:47.979Z,8.55
2022-10-18T14:32:26.453Z,8.40
2022-10-18T14:35:09.241Z,9.65
2022-10-18T14:37:44.345Z,8.85
2022-10-18T14:40:31.274Z,9.52
2022-10-18T14:43:03.619Z,9.80
2022-10-18T14:45:33.366Z,9.65
2022-10-18T14:48:13.970Z,9.77
2022-10-18T14:50:43.533Z,8.90
2022-10-18T14:53:17.532Z,9.35
2022-10-18T14:55:55.207Z,9.48
2022-10-18T14:58:24.328Z,9.23
2022-10-18T15:00:55.327Z,10.48
2022-10-18T15:03:24.211Z,9.13
2022-10-18T15:05:54.749Z,9.73
2022-10-18T15:08:24.378Z,9.60
2022-10-18T15:10:53.337Z,10.13
2022-10-18T15:13:23.265Z,9.57
2022-10-18T15:15:52.070Z,10.00
2022-10-18T15:18:24.107Z,9.93
2022-10-18T15:21:20.590Z,9.95
2022-10-18T15:23:49.811Z,9.80
2022-10-18T15:26:23.635Z,9.75
2022-10-18T15:28:56.587Z,10.63
2022-10-18T15:31:27.629Z,10.40
2022-10-18T15:34:19.495Z,10.25
2022-10-18T15:36:48.908Z,10.13
2022-10-18T15:39:20.653Z,10.15
2022-10-18T15:41:50.743Z,10.20
2022-10-18T15:44:26.096Z,10.10
2022-10-18T15:49:52.158Z,10.32
2022-10-18T15:52:39.450Z,9.77
2022-10-18T15:55:43.581Z,11.60
2022-10-18T15:58:16.983Z,11.02
2022-10-18T16:00:46.710Z,10.45
2022-10-18T16:03:15.885Z,11.18
2022-10-18T16:05:45.821Z,10.20
2022-10-18T16:08:22.914Z,10.35
2022-10-18T16:10:52.075Z,10.00
2022-10-18T16:13:20.646Z,10.63
2022-10-18T16:15:49.293Z,11.63
2022-10-18T16:18:20.521Z,10.60
2022-10-18T16:20:50.263Z,10.23
2022-10-18T16:23:20.879Z,11.05
2022-10-18T16:25:49.849Z,10.70
2022-10-18T16:28:21.097Z,11.57
2022-10-18T16:30:55.147Z,9.70
2022-10-18T16:33:29.385Z,10.48
2022-10-18T16:36:04.497Z,9.82
2022-10-18T16:38:35.483Z,10.00
2022-10-18T16:41:18.574Z,9.93
2022-10-18T16:43:48.490Z,9.35
2022-10-18T16:46:19.662Z,9.30
2022-10-18T16:48:49.248Z,8.73
2022-10-18T16:51:19.098Z,8.43
2022-10-18T16:53:47.922Z,9.43
2022-10-18T16:56:18.661Z,9.30
2022-10-18T16:58:47.307Z,8.45
2022-10-18T17:01:17.872Z,9.30
2022-10-18T17:03:46.723Z,8.77
2022-10-18T17:06:17.642Z,9.48
2022-10-18T17:08:47.526Z,10.57
2022-10-18T17:11:20.003Z,10.88
2022-10-18T17:13:48.649Z,10.15
2022-10-18T17:19:03.554Z,10.93
2022-10-18T17:21:33.391Z,10.38
2022-10-18T17:24:04.395Z,10.50
2022-10-18T17:26:33.409Z,10.52
2022-10-18T17:29:04.811Z,11.07
2022-10-18T17:31:35.426Z,10.70
2022-10-18T17:34:04.178Z,11.68
2022-10-18T17:36:34.335Z,11.85
2022-10-18T17:39:04.764Z,12.07
2022-10-18T17:41:33.189Z,10.55
2022-10-18T17:44:03.897Z,11.98
2022-10-18T17:46:32.849Z,10.32
2022-10-18T17:49:01.206Z,12.15
2022-10-18T17:51:29.623Z,11.40
2022-10-18T17:54:00.352Z,11.27
2022-10-18T17:56:33.303Z,11.23
2022-10-18T17:59:02.231Z,11.68
2022-10-18T18:01:30.613Z,12.07
2022-10-18T18:04:01.436Z,11.40
2022-10-18T18:06:33.411Z,12.30
2022-10-18T18:09:06.797Z,12.90
2022-10-18T18:11:37.297Z,11.68
2022-10-18T18:14:08.906Z,11.48
2022-10-18T18:16:39.040Z,10.55
2022-10-18T18:19:09.833Z,11.70
2022-10-18T18:21:39.306Z,11.40
2022-10-18T18:24:09.935Z,10.82
2022-10-18T18:26:40.795Z,11.73
2022-10-18T18:29:09.245Z,11.95
2022-10-18T18:31:40.279Z,11.50
2022-10-18T18:34:12.394Z,12.25
2022-10-18T18:36:41.388Z,11.43
2022-10-18T18:39:17.337Z,12.68
2022-10-18T18:41:48.762Z,12.20
2022-10-18T18:44:17.881Z,11.23
2022-10-18T18:46:46.381Z,11.88
2022-10-18T18:49:15.117Z,10.18
2022-10-18T18:51:43.647Z,11.00
2022-10-18T18:54:15.730Z,11.00
2022-10-18T18:56:44.351Z,10.35
2022-10-18T18:59:15.750Z,10.90
2022-10-18T19:01:44.830Z,11.50
2022-10-18T19:04:13.424Z,10.93
2022-10-18T19:06:44.385Z,10.82
2022-10-18T19:09:19.129Z,11.15
2022-10-18T19:11:57.421Z,11.07
2022-10-18T19:14:30.930Z,12.43
2022-10-18T19:17:01.065Z,11.13
2022-10-18T19:19:37.381Z,10.63
2022-10-18T19:22:08.318Z,10.35
2022-10-18T19:24:36.782Z,11.35
2022-10-18T19:27:09.575Z,9.88
2022-10-18T19:29:40.859Z,10.07
2022-10-18T19:32:12.002Z,10.45
2022-10-18T19:34:40.518Z,10.70
2022-10-18T19:37:09.901Z,10.07
2022-10-18T19:39:38.280Z,11.48
2022-10-18T19:42:09.327Z,10.30
2022-10-18T19:44:40.811Z,10.98
2022-10-18T19:47:14.031Z,10.50
2022-10-18T19:49:43.064Z,10.43
2022-10-18T19:52:12.270Z,9.90
2022-10-18T19:54:40.734Z,10.07
2022-10-18T19:57:09.471Z,9.95
2022-10-18T20:02:14.977Z,11.48
2022-10-18T20:04:43.485Z,9.85
2022-10-18T20:07:11.887Z,10.32
2022-10-18T20:09:40.616Z,10.10
2022-10-18T20:12:08.966Z,9.50
2022-10-18T20:14:38.705Z,9.52
2022-10-18T20:17:07.185Z,9.85
2022-10-18T20:19:35.573Z,11.02
2022-10-18T20:22:04.065Z,10.52
2022-10-18T20:24:32.406Z,10.93
2022-10-18T20:27:00.852Z,9.57
2022-10-18T20:29:30.118Z,9.75
2022-10-18T20:32:00.023Z,9.77
2022-10-18T20:34:29.070Z,9.88
2022-10-18T20:36:57.450Z,10.32
2022-10-18T20:39:28.941Z,10.77
2022-10-18T20:41:57.268Z,10.20
2022-10-18T20:44:26.862Z,10.05
2022-10-18T20:46:55.305Z,9.43
2022-10-18T20:49:25.333Z,10.35
2022-10-18T20:51:53.731Z,9.57
2022-10-18T20:54:22.677Z,9.60
2022-10-18T20:56:51.018Z,8.95
2022-10-18T20:59:19.424Z,9.63
2022-10-18T21:01:48.045Z,8.93
2022-10-18T21:04:16.451Z,8.13
2022-10-18T21:06:46.157Z,9.52
2022-10-18T21:09:17.129Z,9.10
2022-10-18T21:11:47.357Z,8.73
2022-10-18T21:14:18.586Z,9.10
2022-10-18T21:16:47.721Z,9.25
2022-10-18T21:19:17.963Z,8.48
2022-10-18T21:21:50.251Z,8.63
2022-10-18T21:24:19.528Z,9.15
2022-10-18T21:26:48.721Z,8.30
2022-10-18T21:29:21.941Z,8.90
2022-10-18T21:31:54.237Z,9.63
2022-10-18T21:34:22.904Z,8.82
2022-10-18T21:36:52.780Z,9.00
2022-10-18T21:41:56.149Z,9.02
2022-10-18T21:44:24.666Z,8.15
2022-10-18T21:46:53.057Z,8.88
2022-10-18T21:49:24.796Z,8.25
2022-10-18T21:51:54.567Z,9.20
2022-10-18T21:54:22.936Z,8.65
2022-10-18T21:56:51.785Z,8.52
2022-10-18T21:59:20.205Z,8.27
2022-10-18T22:01:48.855Z,7.70
2022-10-18T22:04:20.715Z,8.88
2022-10-18T22:06:49.442Z,8.30
2022-10-18T22:09:19.660Z,8.48
2022-10-18T22:11:50.810Z,7.95
2022-10-18T22:14:19.195Z,8.23
2022-10-18T22:16:47.592Z,7.93
2022-10-18T22:19:16.010Z,7.68
2022-10-18T22:21:44.446Z,8.23
2022-10-18T22:24:12.813Z,8.90
2022-10-18T22:26:44.364Z,8.73
2022-10-18T22:29:15.340Z,7.72
2022-10-18T22:31:46.603Z,6.90
2022-10-18T22:34:16.786Z,7.00
2022-10-18T22:36:45.271Z,7.35
2022-10-18T22:39:15.562Z,7.57
2022-10-18T22:41:46.509Z,9.32
2022-10-18T22:44:15.781Z,8.73
2022-10-18T22:46:44.208Z,8.85
2022-10-18T22:49:13.296Z,8.32
2022-10-18T22:51:42.105Z,8.35
2022-10-18T22:54:10.972Z,8.82
2022-10-18T22:56:39.598Z,7.85
2022-10-18T22:59:09.333Z,8.10
2022-10-18T23:01:39.017Z,8.23
2022-10-18T23:04:07.408Z,7.85
2022-10-18T23:06:37.205Z,8.13
2022-10-18T23:09:07.882Z,8.32
2022-10-18T23:11:37.738Z,7.60
2022-10-18T23:14:09.014Z,7.90
2022-10-18T23:16:37.556Z,8.35
2022-10-18T23:19:05.907Z,7.13
2022-10-18T23:21:34.921Z,7.75
2022-10-18T23:24:03.380Z,7.70
2022-10-18T23:26:31.812Z,7.82
2022-10-18T23:29:00.515Z,6.97
2022-10-18T23:31:32.570Z,6.53
2022-10-18T23:34:03.029Z,7.18
2022-10-18T23:36:32.446Z,6.88
2022-10-18T23:39:00.854Z,6.72
2022-10-18T23:41:29.431Z,7.50
2022-10-18T23:43:57.770Z,7.32
2022-10-18T23:46:26.411Z,6.53
2022-10-18T23:48:56.126Z,6.65
2022-10-18T23:51:24.660Z,7.20
2022-10-18T23:53:52.971Z,6.97
2022-10-18T23:56:21.450Z,7.13
2022-10-18T23:58:49.756Z,6.72
